CheckWX is a tool to help pilots better visualize weather data.  It is not intended as a substitute for an official pre-flight weather briefing.

20:06:32 UTC

D73 METAR
Monroe-Walton County Airport
Monroe, Georgia, USA
Current

32 mins ago

KD73 261935Z AUTO 29006KT 10SM CLR 34/16 A3012 RMK AO2 T03440164
Observed
May-26 @ 19:35 UTC
Wind
  • 290° at 6 KTS
Visibility
10 SM
Flight Rules
VFR
Cloud Levels
  • Clear skies
Temperature
34°C / 93°F
Dewpoint
16°C / 61°F
Humidity
34%
Altimeter
30.12" Hg
Pressure
1020.02 hPa
Previous

52 mins ago

KD73 261915Z AUTO 28007KT 10SM CLR 34/17 A3013 RMK AO2 T03380165
Observed
May-26 @ 19:15 UTC
Wind
  • 280° at 7 KTS
Visibility
10 SM
Flight Rules
VFR
Cloud Levels
  • Clear skies
Temperature
34°C / 93°F
Dewpoint
17°C / 63°F
Humidity
36%
Altimeter
30.13" Hg
Pressure
1020.32 hPa
Previous

1 hour ago

KD73 261855Z AUTO 30006KT 10SM SCT070 34/17 A3014 RMK AO2 T03380170
Observed
May-26 @ 18:55 UTC
Wind
  • 300° at 6 KTS
Visibility
10 SM
Flight Rules
VFR
Cloud Levels
  • Scattered at 7,000' AGL
Temperature
34°C / 93°F
Dewpoint
17°C / 63°F
Humidity
36%
Altimeter
30.14" Hg
Pressure
1020.62 hPa